createdAt,value
2018-04-18T00:03:10.961Z,3.46
2018-04-18T00:09:01.848Z,4.19
2018-04-18T00:14:52.756Z,4.1
2018-04-18T00:20:43.663Z,4.11
2018-04-18T00:26:34.548Z,3.92
2018-04-18T00:32:25.455Z,3.69
2018-04-18T00:38:16.329Z,3.51
2018-04-18T00:44:07.224Z,3.2
2018-04-18T00:49:58.107Z,3.78
2018-04-18T00:55:49.050Z,3.52
2018-04-18T01:01:39.893Z,4.11
2018-04-18T01:07:30.782Z,4.2
2018-04-18T01:13:21.669Z,3.93
2018-04-18T01:19:12.564Z,3.28
2018-04-18T01:25:03.435Z,3.71
2018-04-18T01:30:54.359Z,3.92
2018-04-18T01:36:45.255Z,4.06
2018-04-18T01:42:36.098Z,3.69
2018-04-18T01:48:27.027Z,4.08
2018-04-18T01:54:17.889Z,3.86
2018-04-18T02:00:08.854Z,4.16
2018-04-18T02:05:59.753Z,3.26
2018-04-18T02:11:50.539Z,3.99
2018-04-18T02:17:41.439Z,3.68
2018-04-18T02:23:32.373Z,3.85
2018-04-18T02:29:23.195Z,3.68
2018-04-18T02:35:14.081Z,4.08
2018-04-18T02:41:04.988Z,3.55
2018-04-18T02:46:55.921Z,3.34
2018-04-18T02:52:46.751Z,3.72
2018-04-18T02:58:37.655Z,4.1
2018-04-18T03:04:28.511Z,3.36
2018-04-18T03:10:19.390Z,2.99
2018-04-18T03:16:10.269Z,3.3
2018-04-18T03:22:01.160Z,3.46
2018-04-18T03:27:52.040Z,3.59
2018-04-18T03:33:42.930Z,3.06
2018-04-18T03:39:33.851Z,3.29
2018-04-18T03:45:24.720Z,3.78
2018-04-18T03:51:15.598Z,3.97
2018-04-18T03:57:06.452Z,3.8
2018-04-18T04:02:57.366Z,3.68
2018-04-18T04:08:48.271Z,4
2018-04-18T04:14:39.127Z,3.75
2018-04-18T04:20:30.079Z,4.29
2018-04-18T04:26:20.923Z,5.01
2018-04-18T04:32:11.838Z,3.49
2018-04-18T04:38:02.712Z,3.61
2018-04-18T04:43:53.593Z,4.22
2018-04-18T04:49:44.461Z,4.37
2018-04-18T04:55:35.311Z,5.15
2018-04-18T05:01:26.174Z,4.01
2018-04-18T05:07:17.068Z,4.55
2018-04-18T05:13:07.956Z,4.01
2018-04-18T05:18:58.824Z,4.39
2018-04-18T05:24:49.739Z,4.39
2018-04-18T05:30:40.623Z,4.37
2018-04-18T05:36:31.500Z,4.25
2018-04-18T05:42:22.390Z,5.29
2018-04-18T05:48:13.314Z,4.62
2018-04-18T05:54:04.140Z,5.54
2018-04-18T05:59:55.040Z,5
2018-04-18T06:05:45.932Z,5.2
2018-04-18T06:11:36.815Z,5.78
2018-04-18T06:17:27.687Z,6.64
2018-04-18T06:23:18.551Z,8.45
2018-04-18T06:29:09.468Z,11.49
2018-04-18T06:35:00.319Z,9.77
2018-04-18T06:40:51.275Z,8.98
2018-04-18T06:46:42.168Z,8.95
2018-04-18T06:52:33.053Z,10
2018-04-18T06:58:23.999Z,16.12
2018-04-18T07:04:14.868Z,22.11
2018-04-18T07:10:05.672Z,23.76
2018-04-18T07:15:56.530Z,28.96
2018-04-18T07:21:47.423Z,38.72
2018-04-18T07:27:38.354Z,30.2
2018-04-18T07:33:29.225Z,35.34
2018-04-18T07:39:20.058Z,30.74
2018-04-18T07:45:11.001Z,24.3
2018-04-18T07:51:01.823Z,29.77
2018-04-18T07:56:52.705Z,38.05
2018-04-18T08:02:43.653Z,29.14
2018-04-18T08:08:34.516Z,26.05
2018-04-18T08:14:25.387Z,22.03
2018-04-18T08:20:16.357Z,17.43
2018-04-18T08:26:07.166Z,11.34
2018-04-18T08:31:58.037Z,9.57
2018-04-18T08:37:48.968Z,7.16
2018-04-18T08:43:39.848Z,6.82
2018-04-18T08:49:30.738Z,6.5
2018-04-18T08:55:21.636Z,5.95
2018-04-18T09:01:12.518Z,4.7
2018-04-18T09:07:03.394Z,3.69
2018-04-18T09:12:54.360Z,3.34
2018-04-18T09:18:45.217Z,3.61
2018-04-18T09:24:36.151Z,3.73
2018-04-18T09:30:27.023Z,3.16
2018-04-18T09:36:17.920Z,3.36
2018-04-18T09:42:08.772Z,3.21
2018-04-18T09:47:59.678Z,2.87
2018-04-18T09:53:50.639Z,2.7
2018-04-18T09:59:41.491Z,3.05
2018-04-18T10:05:32.388Z,2.74
2018-04-18T10:11:23.305Z,3.17
2018-04-18T10:17:14.205Z,3.05
2018-04-18T10:23:05.154Z,3.8
2018-04-18T10:28:56.005Z,4.91
2018-04-18T10:34:46.932Z,3.99
2018-04-18T10:40:37.815Z,4.05
2018-04-18T10:46:28.756Z,4.85
2018-04-18T10:52:19.632Z,7.72
2018-04-18T10:58:10.581Z,10.11
2018-04-18T11:04:01.507Z,10.84
2018-04-18T11:09:52.409Z,9.81
2018-04-18T11:15:43.285Z,9.82
2018-04-18T11:21:34.229Z,13.28
2018-04-18T11:27:25.089Z,17.41
2018-04-18T11:33:16.005Z,17.35
2018-04-18T11:39:06.921Z,18.97
2018-04-18T11:44:57.840Z,12.46
2018-04-18T11:50:48.737Z,9.21
2018-04-18T11:56:39.633Z,5.95
2018-04-18T12:02:30.600Z,6.95
2018-04-18T12:08:21.448Z,9.52
2018-04-18T12:14:12.377Z,10.71
2018-04-18T12:20:03.325Z,11.74
2018-04-18T12:25:54.220Z,10.84
2018-04-18T12:31:45.137Z,11.79
2018-04-18T12:37:36.064Z,14.89
2018-04-18T12:43:27.027Z,16.28
2018-04-18T12:49:17.961Z,15.98
2018-04-18T12:55:08.769Z,20.1
2018-04-18T13:00:59.774Z,16.1
2018-04-18T13:06:50.702Z,9.44
2018-04-18T13:12:41.604Z,6.28
2018-04-18T13:18:32.480Z,5.6
2018-04-18T13:24:23.423Z,3.85
2018-04-18T13:30:14.354Z,7.88
2018-04-18T13:36:05.313Z,12.23
2018-04-18T13:41:56.180Z,12.67
2018-04-18T13:47:47.139Z,13.17
2018-04-18T13:53:38.085Z,12.59
2018-04-18T13:59:29.010Z,14.9
2018-04-18T14:05:19.980Z,15.39
2018-04-18T14:11:10.889Z,14.89
2018-04-18T14:17:01.825Z,17.3
2018-04-18T14:22:52.763Z,26.03
2018-04-18T14:28:43.728Z,28.42
2018-04-18T14:34:34.629Z,35.33
2018-04-18T14:40:25.570Z,41.41
2018-04-18T14:46:16.506Z,28.47
2018-04-18T14:52:07.450Z,18.43
2018-04-18T14:57:58.383Z,10.04
2018-04-18T15:03:49.238Z,8.29
2018-04-18T15:09:40.169Z,8.4
2018-04-18T15:15:31.072Z,12.81
2018-04-18T15:21:22.055Z,16.7
2018-04-18T15:27:12.927Z,22.37
2018-04-18T15:33:03.892Z,20.5
2018-04-18T15:38:54.802Z,18.21
2018-04-18T15:44:45.776Z,16.15
2018-04-18T15:50:36.622Z,15.05
2018-04-18T15:56:27.615Z,14.5
2018-04-18T16:02:18.571Z,14.39
2018-04-18T16:08:09.400Z,17.78
2018-04-18T16:14:00.304Z,17.5
2018-04-18T16:19:51.229Z,17.05
2018-04-18T16:25:42.211Z,16.46
2018-04-18T16:31:33.092Z,17.12
2018-04-18T16:37:24.017Z,15.4
2018-04-18T16:43:14.942Z,12.88
2018-04-18T16:49:05.865Z,11.09
2018-04-18T16:54:56.873Z,9.11
2018-04-18T17:00:47.663Z,7.19
2018-04-18T17:06:38.685Z,7.14
2018-04-18T17:12:29.526Z,6.18
2018-04-18T17:18:20.457Z,6.43
2018-04-18T17:24:11.343Z,6.12
2018-04-18T17:30:02.400Z,5.23
2018-04-18T17:35:53.302Z,5.41
2018-04-18T17:41:44.118Z,5.31
2018-04-18T17:47:35.130Z,5.56
2018-04-18T17:53:25.938Z,5.82
2018-04-18T17:59:16.848Z,5.45
2018-04-18T18:05:07.720Z,5.44
2018-04-18T18:10:58.664Z,5.03
2018-04-18T18:16:49.546Z,4.3
2018-04-18T18:22:40.459Z,5
2018-04-18T18:28:31.374Z,4.32
2018-04-18T18:34:22.373Z,5.11
2018-04-18T18:40:13.178Z,4.39
2018-04-18T18:46:04.137Z,4.19
2018-04-18T18:51:55.009Z,4.49
2018-04-18T18:57:45.913Z,4.22
2018-04-18T19:03:36.810Z,4.82
2018-04-18T19:09:27.755Z,4.69
2018-04-18T19:15:18.621Z,3.9
2018-04-18T19:21:09.536Z,4.25
2018-04-18T19:27:00.417Z,4.04
2018-04-18T19:32:51.338Z,3.86
2018-04-18T19:38:42.265Z,3.77
2018-04-18T19:44:33.148Z,3.55
2018-04-18T19:50:24.071Z,3.85
2018-04-18T19:56:15.005Z,4.42
2018-04-18T20:02:05.944Z,3.56
2018-04-18T20:07:56.870Z,3.54
2018-04-18T20:13:47.659Z,3.31
2018-04-18T20:19:38.559Z,3.49
2018-04-18T20:25:29.465Z,3.39
2018-04-18T20:31:20.386Z,3.68
2018-04-18T20:37:11.276Z,3.57
2018-04-18T20:43:02.198Z,3.46
2018-04-18T20:48:53.073Z,3.14
2018-04-18T20:54:43.942Z,3.47
2018-04-18T21:00:34.893Z,3.2
2018-04-18T21:06:25.810Z,3.12
2018-04-18T21:12:16.661Z,3.66
2018-04-18T21:18:07.545Z,3.41
2018-04-18T21:23:58.459Z,3.26
2018-04-18T21:29:49.376Z,3.33
2018-04-18T21:35:40.246Z,3.25
2018-04-18T21:41:31.216Z,3.41
2018-04-18T21:47:22.026Z,3.44
2018-04-18T21:53:12.935Z,3.94
2018-04-18T21:59:03.838Z,3.72
2018-04-18T22:04:54.762Z,3.22
2018-04-18T22:10:45.645Z,3.03
2018-04-18T22:15:54.712Z,4.5
2018-04-18T22:21:44.728Z,3.02
2018-04-18T22:27:35.190Z,3.25
2018-04-18T22:39:15.504Z,3.34
2018-04-18T22:45:05.341Z,3.37
2018-04-18T22:50:55.557Z,3.23
2018-04-18T22:56:45.562Z,3.31
2018-04-18T23:02:35.763Z,3.36
2018-04-18T23:08:25.743Z,3.19
2018-04-18T23:14:16.142Z,3.05
2018-04-18T23:20:06.047Z,2.81
2018-04-18T23:25:56.218Z,3.53
2018-04-18T23:31:46.265Z,3.19
2018-04-18T23:37:36.458Z,3.6
2018-04-18T23:43:26.432Z,3.37
2018-04-18T23:49:16.666Z,3.53
2018-04-18T23:55:06.706Z,3.35
